sensor_id;sensor_type;location;lat;lon;timestamp;pressure;altitude;pressure_sealevel;temperature;humidity
34979;BME280;21185;50.978;13.720;2023-12-14T00:00:55;97044.31;;;7.59;81.99
34979;BME280;21185;50.978;13.720;2023-12-14T00:06:13;97049.47;;;7.59;82.10
34979;BME280;21185;50.978;13.720;2023-12-14T00:11:16;97055.44;;;7.60;82.10
34979;BME280;21185;50.978;13.720;2023-12-14T00:16:26;97057.84;;;7.61;82.30
34979;BME280;21185;50.978;13.720;2023-12-14T00:21:29;97057.50;;;7.64;82.18
34979;BME280;21185;50.978;13.720;2023-12-14T00:26:31;97060.72;;;7.66;82.27
34979;BME280;21185;50.978;13.720;2023-12-14T00:31:33;97064.91;;;7.67;82.26
34979;BME280;21185;50.978;13.720;2023-12-14T00:36:35;97067.47;;;7.67;82.42
34979;BME280;21185;50.978;13.720;2023-12-14T00:41:37;97076.19;;;7.66;82.39
34979;BME280;21185;50.978;13.720;2023-12-14T00:46:39;97082.34;;;7.65;82.48
34979;BME280;21185;50.978;13.720;2023-12-14T00:51:43;97091.22;;;7.63;82.61
34979;BME280;21185;50.978;13.720;2023-12-14T00:56:45;97093.19;;;7.61;82.48
34979;BME280;21185;50.978;13.720;2023-12-14T01:01:47;97100.13;;;7.60;82.59
34979;BME280;21185;50.978;13.720;2023-12-14T01:06:49;97118.19;;;7.60;82.37
34979;BME280;21185;50.978;13.720;2023-12-14T01:11:52;97115.28;;;7.63;82.44
34979;BME280;21185;50.978;13.720;2023-12-14T01:16:54;97121.25;;;7.64;82.57
34979;BME280;21185;50.978;13.720;2023-12-14T01:21:56;97128.97;;;7.64;82.24
34979;BME280;21185;50.978;13.720;2023-12-14T01:26:58;97130.13;;;7.61;82.33
34979;BME280;21185;50.978;13.720;2023-12-14T01:32:03;97128.69;;;7.59;82.40
34979;BME280;21185;50.978;13.720;2023-12-14T01:37:05;97136.59;;;7.57;82.58
34979;BME280;21185;50.978;13.720;2023-12-14T01:42:08;97140.47;;;7.61;82.36
34979;BME280;21185;50.978;13.720;2023-12-14T01:47:10;97152.03;;;7.65;82.55
34979;BME280;21185;50.978;13.720;2023-12-14T01:52:13;97153.31;;;7.69;82.33
34979;BME280;21185;50.978;13.720;2023-12-14T01:57:15;97165.25;;;7.70;82.38
34979;BME280;21185;50.978;13.720;2023-12-14T02:02:18;97170.75;;;7.67;82.55
34979;BME280;21185;50.978;13.720;2023-12-14T02:07:21;97169.66;;;7.62;82.43
34979;BME280;21185;50.978;13.720;2023-12-14T02:12:23;97182.91;;;7.59;82.53
34979;BME280;21185;50.978;13.720;2023-12-14T02:17:25;97178.88;;;7.56;82.87
34979;BME280;21185;50.978;13.720;2023-12-14T02:22:52;97175.31;;;7.57;82.88
34979;BME280;21185;50.978;13.720;2023-12-14T02:27:56;97190.34;;;7.54;83.08
34979;BME280;21185;50.978;13.720;2023-12-14T02:32:58;97192.31;;;7.52;83.15
34979;BME280;21185;50.978;13.720;2023-12-14T02:38:00;97194.25;;;7.50;83.06
34979;BME280;21185;50.978;13.720;2023-12-14T02:43:02;97195.38;;;7.47;83.24
34979;BME280;21185;50.978;13.720;2023-12-14T02:48:05;97197.66;;;7.42;83.36
34979;BME280;21185;50.978;13.720;2023-12-14T02:53:07;97206.22;;;7.42;83.55
34979;BME280;21185;50.978;13.720;2023-12-14T02:58:10;97203.16;;;7.39;83.30
34979;BME280;21185;50.978;13.720;2023-12-14T03:03:12;97205.63;;;7.32;83.17
34979;BME280;21185;50.978;13.720;2023-12-14T03:08:15;97212.25;;;7.27;83.13
34979;BME280;21185;50.978;13.720;2023-12-14T03:13:17;97223.22;;;7.21;83.49
34979;BME280;21185;50.978;13.720;2023-12-14T03:18:19;97229.69;;;7.17;83.38
34979;BME280;21185;50.978;13.720;2023-12-14T03:23:22;97235.50;;;7.19;83.67
34979;BME280;21185;50.978;13.720;2023-12-14T03:28:24;97234.19;;;7.23;83.49
34979;BME280;21185;50.978;13.720;2023-12-14T03:33:26;97239.50;;;7.29;83.64
34979;BME280;21185;50.978;13.720;2023-12-14T03:38:28;97254.66;;;7.32;83.49
34979;BME280;21185;50.978;13.720;2023-12-14T03:43:31;97261.25;;;7.35;83.47
34979;BME280;21185;50.978;13.720;2023-12-14T03:48:33;97267.03;;;7.37;83.68
34979;BME280;21185;50.978;13.720;2023-12-14T03:53:35;97278.00;;;7.39;83.69
34979;BME280;21185;50.978;13.720;2023-12-14T03:58:37;97287.03;;;7.43;83.67
34979;BME280;21185;50.978;13.720;2023-12-14T04:03:46;97287.03;;;7.43;83.68
34979;BME280;21185;50.978;13.720;2023-12-14T04:08:48;97297.34;;;7.43;83.74
34979;BME280;21185;50.978;13.720;2023-12-14T04:13:51;97300.75;;;7.43;83.84
34979;BME280;21185;50.978;13.720;2023-12-14T04:18:55;97306.06;;;7.42;84.05
34979;BME280;21185;50.978;13.720;2023-12-14T04:24:01;97307.03;;;7.41;84.44
34979;BME280;21185;50.978;13.720;2023-12-14T04:29:04;97313.00;;;7.41;84.38
34979;BME280;21185;50.978;13.720;2023-12-14T04:34:07;97318.81;;;7.43;84.35
34979;BME280;21185;50.978;13.720;2023-12-14T04:39:14;97323.97;;;7.43;84.16
34979;BME280;21185;50.978;13.720;2023-12-14T04:44:17;97325.91;;;7.41;84.57
34979;BME280;21185;50.978;13.720;2023-12-14T04:49:19;97337.03;;;7.42;84.66
34979;BME280;21185;50.978;13.720;2023-12-14T04:54:22;97351.72;;;7.41;84.82
34979;BME280;21185;50.978;13.720;2023-12-14T04:59:24;97364.63;;;7.41;84.76
34979;BME280;21185;50.978;13.720;2023-12-14T05:04:26;97372.38;;;7.41;84.92
34979;BME280;21185;50.978;13.720;2023-12-14T05:09:28;97373.00;;;7.43;84.86
34979;BME280;21185;50.978;13.720;2023-12-14T05:14:31;97387.69;;;7.43;85.22
34979;BME280;21185;50.978;13.720;2023-12-14T05:19:33;97396.56;;;7.40;85.19
34979;BME280;21185;50.978;13.720;2023-12-14T05:24:38;97398.84;;;7.35;85.20
34979;BME280;21185;50.978;13.720;2023-12-14T05:29:40;97399.97;;;7.33;85.67
34979;BME280;21185;50.978;13.720;2023-12-14T05:34:42;97412.06;;;7.32;85.81
34979;BME280;21185;50.978;13.720;2023-12-14T05:39:44;97416.25;;;7.33;85.87
34979;BME280;21185;50.978;13.720;2023-12-14T05:44:47;97432.53;;;7.34;85.83
34979;BME280;21185;50.978;13.720;2023-12-14T05:49:49;97451.56;;;7.33;85.68
34979;BME280;21185;50.978;13.720;2023-12-14T05:54:51;97467.38;;;7.30;85.79
34979;BME280;21185;50.978;13.720;2023-12-14T05:59:53;97469.31;;;7.28;86.11
34979;BME280;21185;50.978;13.720;2023-12-14T06:04:55;97474.16;;;7.23;86.19
34979;BME280;21185;50.978;13.720;2023-12-14T06:09:59;97483.81;;;7.21;86.40
34979;BME280;21185;50.978;13.720;2023-12-14T06:15:03;97486.56;;;7.19;86.69
34979;BME280;21185;50.978;13.720;2023-12-14T06:20:06;97490.09;;;7.18;86.62
34979;BME280;21185;50.978;13.720;2023-12-14T06:25:10;97506.56;;;7.17;86.56
34979;BME280;21185;50.978;13.720;2023-12-14T06:30:12;97506.72;;;7.15;86.98
34979;BME280;21185;50.978;13.720;2023-12-14T06:35:15;97513.50;;;7.17;86.97
34979;BME280;21185;50.978;13.720;2023-12-14T06:40:17;97528.00;;;7.18;86.69
34979;BME280;21185;50.978;13.720;2023-12-14T06:45:21;97538.31;;;7.18;86.91
34979;BME280;21185;50.978;13.720;2023-12-14T06:50:24;97544.59;;;7.15;86.86
34979;BME280;21185;50.978;13.720;2023-12-14T06:55:26;97550.72;;;7.14;87.01
34979;BME280;21185;50.978;13.720;2023-12-14T07:00:28;97565.25;;;7.15;87.06
34979;BME280;21185;50.978;13.720;2023-12-14T07:05:31;97574.13;;;7.12;86.99
34979;BME280;21185;50.978;13.720;2023-12-14T07:10:35;97585.56;;;7.10;87.00
34979;BME280;21185;50.978;13.720;2023-12-14T07:15:37;97591.53;;;7.10;87.19
34979;BME280;21185;50.978;13.720;2023-12-14T07:20:39;97602.16;;;7.07;86.91
34979;BME280;21185;50.978;13.720;2023-12-14T07:25:42;97620.22;;;7.07;86.80
34979;BME280;21185;50.978;13.720;2023-12-14T07:30:45;97633.41;;;7.04;86.85
34979;BME280;21185;50.978;13.720;2023-12-14T07:35:48;97637.28;;;7.00;86.85
34979;BME280;21185;50.978;13.720;2023-12-14T07:40:51;97653.06;;;6.97;86.95
34979;BME280;21185;50.978;13.720;2023-12-14T07:45:57;97662.25;;;7.00;87.02
34979;BME280;21185;50.978;13.720;2023-12-14T07:51:00;97670.31;;;6.97;86.83
34979;BME280;21185;50.978;13.720;2023-12-14T07:56:06;97674.31;;;6.91;86.64
34979;BME280;21185;50.978;13.720;2023-12-14T08:01:08;97684.44;;;6.85;86.83
34979;BME280;21185;50.978;13.720;2023-12-14T08:06:11;97683.94;;;6.81;86.99
34979;BME280;21185;50.978;13.720;2023-12-14T08:11:15;97699.41;;;6.81;87.00
34979;BME280;21185;50.978;13.720;2023-12-14T08:16:17;97712.59;;;6.78;87.07
34979;BME280;21185;50.978;13.720;2023-12-14T08:21:21;97717.91;;;6.76;86.91
34979;BME280;21185;50.978;13.720;2023-12-14T08:26:23;97727.25;;;6.77;87.09
34979;BME280;21185;50.978;13.720;2023-12-14T08:31:25;97732.25;;;6.79;86.66
34979;BME280;21185;50.978;13.720;2023-12-14T08:36:29;97736.75;;;6.77;86.84
34979;BME280;21185;50.978;13.720;2023-12-14T08:41:38;97747.06;;;6.77;86.80
34979;BME280;21185;50.978;13.720;2023-12-14T08:46:43;97755.78;;;6.76;86.78
34979;BME280;21185;50.978;13.720;2023-12-14T08:51:46;97758.34;;;6.76;86.72
34979;BME280;21185;50.978;13.720;2023-12-14T08:56:48;97766.53;;;6.71;86.53
34979;BME280;21185;50.978;13.720;2023-12-14T09:01:50;97787.31;;;6.70;86.35
34979;BME280;21185;50.978;13.720;2023-12-14T09:06:52;97800.34;;;6.68;86.36
34979;BME280;21185;50.978;13.720;2023-12-14T09:11:55;97804.84;;;6.66;86.61
34979;BME280;21185;50.978;13.720;2023-12-14T09:16:57;97809.84;;;6.68;86.10
34979;BME280;21185;50.978;13.720;2023-12-14T09:22:00;97818.09;;;6.71;86.44
34979;BME280;21185;50.978;13.720;2023-12-14T09:27:02;97825.97;;;6.70;86.28
34979;BME280;21185;50.978;13.720;2023-12-14T09:32:04;97832.25;;;6.67;86.05
34979;BME280;21185;50.978;13.720;2023-12-14T09:37:07;97834.97;;;6.66;86.25
34979;BME280;21185;50.978;13.720;2023-12-14T09:42:09;97844.03;;;6.70;85.97
34979;BME280;21185;50.978;13.720;2023-12-14T09:47:11;97843.22;;;6.69;85.92
34979;BME280;21185;50.978;13.720;2023-12-14T09:52:13;97861.28;;;6.69;86.01
34979;BME280;21185;50.978;13.720;2023-12-14T09:57:18;97864.44;;;6.63;85.74
34979;BME280;21185;50.978;13.720;2023-12-14T10:02:25;97875.19;;;6.59;85.91
34979;BME280;21185;50.978;13.720;2023-12-14T10:07:33;97880.50;;;6.57;85.80
34979;BME280;21185;50.978;13.720;2023-12-14T10:12:51;97871.00;;;6.58;85.71
34979;BME280;21185;50.978;13.720;2023-12-14T10:17:58;97883.06;;;6.57;85.74
34979;BME280;21185;50.978;13.720;2023-12-14T10:23:48;97897.59;;;6.58;85.80
34979;BME280;21185;50.978;13.720;2023-12-14T10:28:50;97894.19;;;6.58;85.78
34979;BME280;21185;50.978;13.720;2023-12-14T10:33:54;97904.50;;;6.58;85.38
34979;BME280;21185;50.978;13.720;2023-12-14T10:38:57;97915.63;;;6.58;85.51
34979;BME280;21185;50.978;13.720;2023-12-14T10:44:00;97918.34;;;6.57;85.45
34979;BME280;21185;50.978;13.720;2023-12-14T10:49:25;97921.06;;;6.55;85.59
34979;BME280;21185;50.978;13.720;2023-12-14T10:54:28;97928.00;;;6.55;85.32
34979;BME280;21185;50.978;13.720;2023-12-14T10:59:32;97936.69;;;6.54;85.37
34979;BME280;21185;50.978;13.720;2023-12-14T11:04:57;97938.31;;;6.55;85.19
34979;BME280;21185;50.978;13.720;2023-12-14T11:10:01;97952.97;;;6.54;85.43
34979;BME280;21185;50.978;13.720;2023-12-14T11:15:07;97958.25;;;6.53;85.11
34979;BME280;21185;50.978;13.720;2023-12-14T11:20:29;97981.59;;;6.51;85.18
34979;BME280;21185;50.978;13.720;2023-12-14T11:25:31;97983.50;;;6.49;85.12
34979;BME280;21185;50.978;13.720;2023-12-14T11:30:46;97980.78;;;6.50;85.07
34979;BME280;21185;50.978;13.720;2023-12-14T11:35:56;97994.34;;;6.53;84.92
34979;BME280;21185;50.978;13.720;2023-12-14T11:40:59;97990.81;;;6.54;84.99
34979;BME280;21185;50.978;13.720;2023-12-14T11:46:01;97992.44;;;6.55;84.86
34979;BME280;21185;50.978;13.720;2023-12-14T11:51:03;97983.75;;;6.56;84.88
34979;BME280;21185;50.978;13.720;2023-12-14T11:56:06;97987.28;;;6.55;84.86
34979;BME280;21185;50.978;13.720;2023-12-14T12:01:16;97987.72;;;6.50;84.85
34979;BME280;21185;50.978;13.720;2023-12-14T12:06:26;97992.50;;;6.45;84.79
34979;BME280;21185;50.978;13.720;2023-12-14T12:11:33;97998.75;;;6.42;84.70
34979;BME280;21185;50.978;13.720;2023-12-14T12:16:35;98009.84;;;6.43;84.82
34979;BME280;21185;50.978;13.720;2023-12-14T12:21:37;98014.63;;;6.38;84.55
34979;BME280;21185;50.978;13.720;2023-12-14T12:26:39;98013.69;;;6.39;84.54
34979;BME280;21185;50.978;13.720;2023-12-14T12:31:41;98010.97;;;6.40;84.73
34979;BME280;21185;50.978;13.720;2023-12-14T12:36:44;98016.78;;;6.42;84.61
34979;BME280;21185;50.978;13.720;2023-12-14T12:41:47;98030.63;;;6.41;84.56
34979;BME280;21185;50.978;13.720;2023-12-14T12:46:49;98032.13;;;6.34;84.43
34979;BME280;21185;50.978;13.720;2023-12-14T12:52:05;98048.97;;;6.29;84.21
34979;BME280;21185;50.978;13.720;2023-12-14T12:57:07;98046.53;;;6.27;84.47
34979;BME280;21185;50.978;13.720;2023-12-14T13:02:09;98056.84;;;6.27;84.77
34979;BME280;21185;50.978;13.720;2023-12-14T13:07:11;98069.88;;;6.26;84.48
34979;BME280;21185;50.978;13.720;2023-12-14T13:12:27;98075.31;;;6.23;84.36
34979;BME280;21185;50.978;13.720;2023-12-14T13:17:32;98083.97;;;6.22;84.62
34979;BME280;21185;50.978;13.720;2023-12-14T13:22:35;98091.47;;;6.15;84.46
34979;BME280;21185;50.978;13.720;2023-12-14T13:27:37;98102.72;;;6.14;84.54
34979;BME280;21185;50.978;13.720;2023-12-14T13:32:40;98097.56;;;6.14;84.58
34979;BME280;21185;50.978;13.720;2023-12-14T13:37:42;98118.97;;;6.14;84.49
34979;BME280;21185;50.978;13.720;2023-12-14T13:42:44;98116.97;;;6.08;84.33
34979;BME280;21185;50.978;13.720;2023-12-14T13:48:00;98146.66;;;6.03;84.26
34979;BME280;21185;50.978;13.720;2023-12-14T13:53:02;98151.13;;;6.01;84.34
34979;BME280;21185;50.978;13.720;2023-12-14T13:58:05;98164.94;;;6.00;84.27
34979;BME280;21185;50.978;13.720;2023-12-14T14:03:07;98169.69;;;5.95;84.38
34979;BME280;21185;50.978;13.720;2023-12-14T14:08:09;98182.72;;;5.93;84.19
34979;BME280;21185;50.978;13.720;2023-12-14T14:13:18;98194.78;;;5.93;84.43
34979;BME280;21185;50.978;13.720;2023-12-14T14:18:22;98208.59;;;5.92;84.33
34979;BME280;21185;50.978;13.720;2023-12-14T14:23:24;98224.03;;;5.92;84.17
34979;BME280;21185;50.978;13.720;2023-12-14T14:28:26;98236.25;;;5.90;84.07
34979;BME280;21185;50.978;13.720;2023-12-14T14:33:28;98238.81;;;5.90;83.92
34979;BME280;21185;50.978;13.720;2023-12-14T14:38:31;98249.34;;;5.86;83.75
34979;BME280;21185;50.978;13.720;2023-12-14T14:43:34;98261.13;;;5.79;83.59
34979;BME280;21185;50.978;13.720;2023-12-14T14:48:37;98268.03;;;5.69;83.52
34979;BME280;21185;50.978;13.720;2023-12-14T14:53:43;98281.03;;;5.68;83.57
34979;BME280;21185;50.978;13.720;2023-12-14T14:58:45;98280.59;;;5.63;83.58
34979;BME280;21185;50.978;13.720;2023-12-14T15:03:48;98286.00;;;5.60;83.55
34979;BME280;21185;50.978;13.720;2023-12-14T15:08:50;98303.34;;;5.58;83.39
34979;BME280;21185;50.978;13.720;2023-12-14T15:13:52;98313.91;;;5.54;83.46
34979;BME280;21185;50.978;13.720;2023-12-14T15:18:54;98322.13;;;5.48;83.32
34979;BME280;21185;50.978;13.720;2023-12-14T15:23:59;98330.25;;;5.44;83.50
34979;BME280;21185;50.978;13.720;2023-12-14T15:29:01;98338.22;;;5.41;83.42
34979;BME280;21185;50.978;13.720;2023-12-14T15:34:03;98344.56;;;5.37;83.14
34979;BME280;21185;50.978;13.720;2023-12-14T15:39:08;98349.03;;;5.35;83.08
34979;BME280;21185;50.978;13.720;2023-12-14T15:44:10;98360.75;;;5.28;82.94
34979;BME280;21185;50.978;13.720;2023-12-14T15:49:18;98365.47;;;5.22;82.85
34979;BME280;21185;50.978;13.720;2023-12-14T15:54:20;98372.38;;;5.22;82.90
34979;BME280;21185;50.978;13.720;2023-12-14T15:59:22;98376.69;;;5.21;82.99
34979;BME280;21185;50.978;13.720;2023-12-14T16:04:24;98387.00;;;5.21;82.90
34979;BME280;21185;50.978;13.720;2023-12-14T16:09:26;98393.78;;;5.22;83.01
34979;BME280;21185;50.978;13.720;2023-12-14T16:14:30;98400.53;;;5.24;83.11
34979;BME280;21185;50.978;13.720;2023-12-14T16:19:33;98407.44;;;5.23;82.57
34979;BME280;21185;50.978;13.720;2023-12-14T16:24:35;98411.38;;;5.17;82.41
34979;BME280;21185;50.978;13.720;2023-12-14T16:29:37;98421.09;;;5.14;82.82
34979;BME280;21185;50.978;13.720;2023-12-14T16:34:39;98429.75;;;5.13;82.67
34979;BME280;21185;50.978;13.720;2023-12-14T16:39:43;98435.25;;;5.08;82.46
34979;BME280;21185;50.978;13.720;2023-12-14T16:44:45;98442.16;;;5.08;82.80
34979;BME280;21185;50.978;13.720;2023-12-14T16:49:48;98448.13;;;5.08;82.91
34979;BME280;21185;50.978;13.720;2023-12-14T16:54:52;98461.22;;;5.05;82.86
34979;BME280;21185;50.978;13.720;2023-12-14T16:59:54;98475.97;;;5.03;82.81
34979;BME280;21185;50.978;13.720;2023-12-14T17:04:56;98480.97;;;5.05;82.78
34979;BME280;21185;50.978;13.720;2023-12-14T17:09:59;98493.84;;;5.05;82.78
34979;BME280;21185;50.978;13.720;2023-12-14T17:15:01;98493.84;;;5.05;82.52
34979;BME280;21185;50.978;13.720;2023-12-14T17:20:09;98495.72;;;5.03;82.90
34979;BME280;21185;50.978;13.720;2023-12-14T17:25:11;98505.19;;;5.02;82.81
34979;BME280;21185;50.978;13.720;2023-12-14T17:30:14;98513.59;;;5.04;82.86
34979;BME280;21185;50.978;13.720;2023-12-14T17:35:16;98523.06;;;5.04;82.85
34979;BME280;21185;50.978;13.720;2023-12-14T17:40:21;98529.97;;;5.03;82.89
34979;BME280;21185;50.978;13.720;2023-12-14T17:45:24;98538.88;;;4.99;82.77
34979;BME280;21185;50.978;13.720;2023-12-14T17:50:26;98548.34;;;4.99;82.98
34979;BME280;21185;50.978;13.720;2023-12-14T17:55:28;98555.13;;;5.00;83.00
34979;BME280;21185;50.978;13.720;2023-12-14T18:00:31;98560.84;;;5.03;82.81
34979;BME280;21185;50.978;13.720;2023-12-14T18:05:33;98567.63;;;5.04;83.01
34979;BME280;21185;50.978;13.720;2023-12-14T18:10:38;98574.28;;;5.07;82.68
34979;BME280;21185;50.978;13.720;2023-12-14T18:15:42;98573.69;;;5.03;82.68
34979;BME280;21185;50.978;13.720;2023-12-14T18:20:46;98592.63;;;5.02;82.98
34979;BME280;21185;50.978;13.720;2023-12-14T18:25:48;98607.00;;;5.05;82.72
34979;BME280;21185;50.978;13.720;2023-12-14T18:30:50;98611.47;;;5.03;82.69
34979;BME280;21185;50.978;13.720;2023-12-14T18:35:52;98629.56;;;5.01;82.69
34979;BME280;21185;50.978;13.720;2023-12-14T18:40:54;98636.13;;;4.94;82.50
34979;BME280;21185;50.978;13.720;2023-12-14T18:45:56;98634.84;;;4.88;82.89
34979;BME280;21185;50.978;13.720;2023-12-14T18:51:01;98639.16;;;4.88;82.89
34979;BME280;21185;50.978;13.720;2023-12-14T18:56:03;98647.13;;;4.85;82.70
34979;BME280;21185;50.978;13.720;2023-12-14T19:01:06;98657.63;;;4.82;82.61
34979;BME280;21185;50.978;13.720;2023-12-14T19:06:15;98662.78;;;4.82;82.86
34979;BME280;21185;50.978;13.720;2023-12-14T19:11:19;98680.06;;;4.80;82.84
34979;BME280;21185;50.978;13.720;2023-12-14T19:16:25;98682.53;;;4.81;83.01
34979;BME280;21185;50.978;13.720;2023-12-14T19:21:29;98688.59;;;4.80;82.91
34979;BME280;21185;50.978;13.720;2023-12-14T19:26:33;98702.28;;;4.81;82.82
34979;BME280;21185;50.978;13.720;2023-12-14T19:31:35;98703.22;;;4.80;82.89
34979;BME280;21185;50.978;13.720;2023-12-14T19:36:37;98707.66;;;4.78;83.09
34979;BME280;21185;50.978;13.720;2023-12-14T19:41:39;98715.25;;;4.79;83.16
34979;BME280;21185;50.978;13.720;2023-12-14T19:46:42;98718.41;;;4.83;83.15
34979;BME280;21185;50.978;13.720;2023-12-14T19:51:48;98727.75;;;4.84;82.94
34979;BME280;21185;50.978;13.720;2023-12-14T19:56:50;98735.59;;;4.82;83.02
34979;BME280;21185;50.978;13.720;2023-12-14T20:01:53;98754.53;;;4.81;82.64
34979;BME280;21185;50.978;13.720;2023-12-14T20:06:55;98758.84;;;4.81;83.12
34979;BME280;21185;50.978;13.720;2023-12-14T20:11:59;98765.63;;;4.82;83.00
34979;BME280;21185;50.978;13.720;2023-12-14T20:17:01;98775.78;;;4.83;83.09
34979;BME280;21185;50.978;13.720;2023-12-14T20:22:07;98788.66;;;4.83;83.30
34979;BME280;21185;50.978;13.720;2023-12-14T20:27:11;98798.22;;;4.81;83.08
34979;BME280;21185;50.978;13.720;2023-12-14T20:32:17;98801.84;;;4.79;83.37
34979;BME280;21185;50.978;13.720;2023-12-14T20:37:19;98812.94;;;4.79;83.18
34979;BME280;21185;50.978;13.720;2023-12-14T20:42:21;98802.88;;;4.76;83.17
34979;BME280;21185;50.978;13.720;2023-12-14T20:47:23;98811.09;;;4.81;83.20
34979;BME280;21185;50.978;13.720;2023-12-14T20:52:25;98810.03;;;4.84;83.31
34979;BME280;21185;50.978;13.720;2023-12-14T20:57:27;98824.41;;;4.86;82.90
34979;BME280;21185;50.978;13.720;2023-12-14T21:02:29;98828.75;;;4.86;83.02
34979;BME280;21185;50.978;13.720;2023-12-14T21:07:33;98829.91;;;4.82;83.04
34979;BME280;21185;50.978;13.720;2023-12-14T21:12:35;98827.44;;;4.80;83.08
34979;BME280;21185;50.978;13.720;2023-12-14T21:17:46;98831.66;;;4.81;83.18
34979;BME280;21185;50.978;13.720;2023-12-14T21:22:50;98845.56;;;4.79;83.31
34979;BME280;21185;50.978;13.720;2023-12-14T21:27:53;98849.97;;;4.77;83.11
34979;BME280;21185;50.978;13.720;2023-12-14T21:32:58;98863.44;;;4.80;83.34
34979;BME280;21185;50.978;13.720;2023-12-14T21:38:01;98863.88;;;4.74;83.11
34979;BME280;21185;50.978;13.720;2023-12-14T21:43:03;98869.03;;;4.74;83.29
34979;BME280;21185;50.978;13.720;2023-12-14T21:48:05;98866.56;;;4.73;83.54
34979;BME280;21185;50.978;13.720;2023-12-14T21:53:07;98875.91;;;4.74;83.55
34979;BME280;21185;50.978;13.720;2023-12-14T21:58:35;98881.88;;;4.74;83.26
34979;BME280;21185;50.978;13.720;2023-12-14T22:03:37;98893.19;;;4.72;83.12
34979;BME280;21185;50.978;13.720;2023-12-14T22:08:41;98897.63;;;4.70;83.19
34979;BME280;21185;50.978;13.720;2023-12-14T22:13:42;98912.25;;;4.69;83.16
34979;BME280;21185;50.978;13.720;2023-12-14T22:18:44;98919.25;;;4.67;83.57
34979;BME280;21185;50.978;13.720;2023-12-14T22:23:46;98924.50;;;4.66;83.29
34979;BME280;21185;50.978;13.720;2023-12-14T22:28:53;98919.34;;;4.66;83.40
34979;BME280;21185;50.978;13.720;2023-12-14T22:33:55;98927.88;;;4.66;83.28
34979;BME280;21185;50.978;13.720;2023-12-14T22:38:57;98933.03;;;4.66;83.49
34979;BME280;21185;50.978;13.720;2023-12-14T22:43:59;98944.13;;;4.67;83.52
34979;BME280;21185;50.978;13.720;2023-12-14T22:49:01;98941.44;;;4.68;83.40
34979;BME280;21185;50.978;13.720;2023-12-14T22:54:03;98947.41;;;4.69;83.45
34979;BME280;21185;50.978;13.720;2023-12-14T22:59:12;98954.19;;;4.70;83.58
34979;BME280;21185;50.978;13.720;2023-12-14T23:04:14;98956.03;;;4.68;83.23
34979;BME280;21185;50.978;13.720;2023-12-14T23:09:16;98962.94;;;4.67;83.30
34979;BME280;21185;50.978;13.720;2023-12-14T23:14:19;98962.94;;;4.67;83.33
34979;BME280;21185;50.978;13.720;2023-12-14T23:19:21;98958.63;;;4.68;83.66
34979;BME280;21185;50.978;13.720;2023-12-14T23:24:24;98968.09;;;4.67;83.63
34979;BME280;21185;50.978;13.720;2023-12-14T23:29:26;98967.88;;;4.70;83.49
34979;BME280;21185;50.978;13.720;2023-12-14T23:34:28;98977.81;;;4.75;83.74
34979;BME280;21185;50.978;13.720;2023-12-14T23:39:30;98980.19;;;4.78;83.79
34979;BME280;21185;50.978;13.720;2023-12-14T23:44:33;98976.47;;;4.82;83.54
34979;BME280;21185;50.978;13.720;2023-12-14T23:49:35;98990.03;;;4.84;83.55
34979;BME280;21185;50.978;13.720;2023-12-14T23:54:37;98990.03;;;4.84;83.54
34979;BME280;21185;50.978;13.720;2023-12-14T23:59:39;99000.31;;;4.84;83.60
